Rosalia, Washington
Current Conditions -  °F | °C
As of 6:12 AM on Wednesday 26 Nov 2014 (Local Time) from KGEG Reporting Station
Drizzle Drizzle  
Wind Chill: 28°   Ceiling: 200
Heat Index: 34°   Visibility: 0.12mi
Dew Point: 33°   Wind: 7mph
Humidity: 96%   Direction: 80°E
Pressure: 30.14"   Gusts: NA
Location:  47.24°N, 117.37°W
Report Text: KGEG 261412Z 08006KT 1/8SM R03/2000V4000FT -DZ FG VV002 01/01 A3014 RMK AO2 SFC VIS 1/4 DZB12 P0000 T00110006
Loading
Personal Weather Stations






























Interactive Weather Map New forecast layout! Learn more

10-Day Weather Forecast

Advertisements
Track Severe Weather on mobile